sensor_id;sensor_type;location;lat;lon;timestamp;temperature;humidity
75363;DHT22;64122;51.988;5.892;2023-08-21T00:00:21;22.13;60.21
75363;DHT22;64122;51.988;5.892;2023-08-21T00:02:50;22.09;60.38
75363;DHT22;64122;51.988;5.892;2023-08-21T00:05:19;22.09;60.26
75363;DHT22;64122;51.988;5.892;2023-08-21T00:07:49;22.11;60.40
75363;DHT22;64122;51.988;5.892;2023-08-21T00:10:21;22.12;60.05
75363;DHT22;64122;51.988;5.892;2023-08-21T00:12:50;22.12;60.02
75363;DHT22;64122;51.988;5.892;2023-08-21T00:15:19;22.09;60.21
75363;DHT22;64122;51.988;5.892;2023-08-21T00:17:48;22.07;60.26
75363;DHT22;64122;51.988;5.892;2023-08-21T00:20:18;22.07;60.38
75363;DHT22;64122;51.988;5.892;2023-08-21T00:22:47;22.10;60.62
75363;DHT22;64122;51.988;5.892;2023-08-21T00:25:16;22.11;60.50
75363;DHT22;64122;51.988;5.892;2023-08-21T00:27:48;22.07;60.70
75363;DHT22;64122;51.988;5.892;2023-08-21T00:30:17;22.05;60.99
75363;DHT22;64122;51.988;5.892;2023-08-21T00:32:47;22.03;61.12
75363;DHT22;64122;51.988;5.892;2023-08-21T00:35:16;22.04;60.86
75363;DHT22;64122;51.988;5.892;2023-08-21T00:37:45;21.99;60.95
75363;DHT22;64122;51.988;5.892;2023-08-21T00:40:15;21.95;60.95
75363;DHT22;64122;51.988;5.892;2023-08-21T00:42:45;21.94;60.90
75363;DHT22;64122;51.988;5.892;2023-08-21T00:45:16;21.92;60.96
75363;DHT22;64122;51.988;5.892;2023-08-21T00:47:46;21.92;60.86
75363;DHT22;64122;51.988;5.892;2023-08-21T00:50:15;21.96;60.96
75363;DHT22;64122;51.988;5.892;2023-08-21T00:52:45;22.03;61.02
75363;DHT22;64122;51.988;5.892;2023-08-21T00:55:15;22.06;61.14
75363;DHT22;64122;51.988;5.892;2023-08-21T00:57:46;22.09;60.86
75363;DHT22;64122;51.988;5.892;2023-08-21T01:00:18;22.09;60.73
75363;DHT22;64122;51.988;5.892;2023-08-21T01:02:48;22.09;60.89
75363;DHT22;64122;51.988;5.892;2023-08-21T01:05:18;22.08;61.21
75363;DHT22;64122;51.988;5.892;2023-08-21T01:07:53;22.05;61.41
75363;DHT22;64122;51.988;5.892;2023-08-21T01:10:31;22.04;61.45
75363;DHT22;64122;51.988;5.892;2023-08-21T01:13:09;21.98;61.34
75363;DHT22;64122;51.988;5.892;2023-08-21T01:15:41;21.90;61.61
75363;DHT22;64122;51.988;5.892;2023-08-21T01:18:13;21.89;61.63
75363;DHT22;64122;51.988;5.892;2023-08-21T01:20:44;21.88;61.55
75363;DHT22;64122;51.988;5.892;2023-08-21T01:23:32;21.84;61.59
75363;DHT22;64122;51.988;5.892;2023-08-21T01:26:01;21.87;61.68
75363;DHT22;64122;51.988;5.892;2023-08-21T01:28:31;21.85;61.58
75363;DHT22;64122;51.988;5.892;2023-08-21T01:31:07;21.80;61.68
75363;DHT22;64122;51.988;5.892;2023-08-21T01:33:42;21.76;61.91
75363;DHT22;64122;51.988;5.892;2023-08-21T01:36:14;21.72;61.98
75363;DHT22;64122;51.988;5.892;2023-08-21T01:38:46;21.68;61.82
75363;DHT22;64122;51.988;5.892;2023-08-21T01:41:15;21.51;61.80
75363;DHT22;64122;51.988;5.892;2023-08-21T01:43:44;21.58;61.80
75363;DHT22;64122;51.988;5.892;2023-08-21T01:46:13;21.50;61.79
75363;DHT22;64122;51.988;5.892;2023-08-21T01:48:43;21.47;61.76
75363;DHT22;64122;51.988;5.892;2023-08-21T01:51:12;21.42;61.97
75363;DHT22;64122;51.988;5.892;2023-08-21T01:53:41;21.34;62.25
75363;DHT22;64122;51.988;5.892;2023-08-21T01:56:13;21.25;62.30
75363;DHT22;64122;51.988;5.892;2023-08-21T01:58:42;21.21;62.52
75363;DHT22;64122;51.988;5.892;2023-08-21T02:01:12;21.19;62.41
75363;DHT22;64122;51.988;5.892;2023-08-21T02:03:41;21.19;62.41
75363;DHT22;64122;51.988;5.892;2023-08-21T02:06:10;21.15;62.56
75363;DHT22;64122;51.988;5.892;2023-08-21T02:08:40;21.09;62.68
75363;DHT22;64122;51.988;5.892;2023-08-21T02:11:09;21.08;62.66
75363;DHT22;64122;51.988;5.892;2023-08-21T02:13:40;21.08;62.60
75363;DHT22;64122;51.988;5.892;2023-08-21T02:16:10;21.10;62.46
75363;DHT22;64122;51.988;5.892;2023-08-21T02:18:41;21.11;62.45
75363;DHT22;64122;51.988;5.892;2023-08-21T02:21:10;21.09;62.47
75363;DHT22;64122;51.988;5.892;2023-08-21T02:23:39;21.07;62.42
75363;DHT22;64122;51.988;5.892;2023-08-21T02:26:10;21.07;62.19
75363;DHT22;64122;51.988;5.892;2023-08-21T02:28:42;21.08;62.05
75363;DHT22;64122;51.988;5.892;2023-08-21T02:31:12;21.11;61.96
75363;DHT22;64122;51.988;5.892;2023-08-21T02:33:42;21.18;61.73
75363;DHT22;64122;51.988;5.892;2023-08-21T02:36:12;21.21;61.58
75363;DHT22;64122;51.988;5.892;2023-08-21T02:38:41;21.22;61.52
75363;DHT22;64122;51.988;5.892;2023-08-21T02:41:11;21.20;61.63
75363;DHT22;64122;51.988;5.892;2023-08-21T02:43:43;21.19;61.67
75363;DHT22;64122;51.988;5.892;2023-08-21T02:46:12;21.22;61.54
75363;DHT22;64122;51.988;5.892;2023-08-21T02:48:41;21.24;61.44
75363;DHT22;64122;51.988;5.892;2023-08-21T02:51:10;21.28;61.41
75363;DHT22;64122;51.988;5.892;2023-08-21T02:53:39;21.31;61.32
75363;DHT22;64122;51.988;5.892;2023-08-21T02:56:08;21.31;61.28
75363;DHT22;64122;51.988;5.892;2023-08-21T02:58:38;21.33;61.21
75363;DHT22;64122;51.988;5.892;2023-08-21T03:01:09;21.36;60.99
75363;DHT22;64122;51.988;5.892;2023-08-21T03:03:39;21.39;60.99
75363;DHT22;64122;51.988;5.892;2023-08-21T03:06:08;21.39;61.22
75363;DHT22;64122;51.988;5.892;2023-08-21T03:08:37;21.36;61.38
75363;DHT22;64122;51.988;5.892;2023-08-21T03:11:06;21.34;61.39
75363;DHT22;64122;51.988;5.892;2023-08-21T03:13:35;21.37;61.25
75363;DHT22;64122;51.988;5.892;2023-08-21T03:16:04;21.44;61.24
75363;DHT22;64122;51.988;5.892;2023-08-21T03:18:54;21.43;60.94
75363;DHT22;64122;51.988;5.892;2023-08-21T03:21:25;21.46;60.71
75363;DHT22;64122;51.988;5.892;2023-08-21T03:23:56;21.42;60.48
75363;DHT22;64122;51.988;5.892;2023-08-21T03:26:26;21.43;60.38
75363;DHT22;64122;51.988;5.892;2023-08-21T03:28:55;21.47;60.17
75363;DHT22;64122;51.988;5.892;2023-08-21T03:31:25;21.52;60.08
75363;DHT22;64122;51.988;5.892;2023-08-21T03:33:57;21.58;60.06
75363;DHT22;64122;51.988;5.892;2023-08-21T03:36:27;21.62;60.12
75363;DHT22;64122;51.988;5.892;2023-08-21T03:39:02;21.67;59.97
75363;DHT22;64122;51.988;5.892;2023-08-21T03:41:35;21.65;59.64
75363;DHT22;64122;51.988;5.892;2023-08-21T03:44:05;21.62;59.61
75363;DHT22;64122;51.988;5.892;2023-08-21T03:46:34;21.59;59.67
75363;DHT22;64122;51.988;5.892;2023-08-21T03:49:06;21.53;59.82
75363;DHT22;64122;51.988;5.892;2023-08-21T03:51:35;21.50;60.09
75363;DHT22;64122;51.988;5.892;2023-08-21T03:54:05;21.44;60.10
75363;DHT22;64122;51.988;5.892;2023-08-21T03:56:34;21.37;60.17
75363;DHT22;64122;51.988;5.892;2023-08-21T03:59:03;21.30;60.22
75363;DHT22;64122;51.988;5.892;2023-08-21T04:01:32;21.22;60.38
75363;DHT22;64122;51.988;5.892;2023-08-21T04:04:01;21.17;60.54
75363;DHT22;64122;51.988;5.892;2023-08-21T04:06:33;21.10;60.67
75363;DHT22;64122;51.988;5.892;2023-08-21T04:09:02;21.09;60.66
75363;DHT22;64122;51.988;5.892;2023-08-21T04:11:33;21.10;60.63
75363;DHT22;64122;51.988;5.892;2023-08-21T04:14:02;21.10;60.62
75363;DHT22;64122;51.988;5.892;2023-08-21T04:16:32;21.05;60.54
75363;DHT22;64122;51.988;5.892;2023-08-21T04:19:01;21.05;60.47
75363;DHT22;64122;51.988;5.892;2023-08-21T04:21:33;21.02;60.31
75363;DHT22;64122;51.988;5.892;2023-08-21T04:24:02;21.06;60.07
75363;DHT22;64122;51.988;5.892;2023-08-21T04:26:31;21.07;60.07
75363;DHT22;64122;51.988;5.892;2023-08-21T04:29:00;21.13;59.84
75363;DHT22;64122;51.988;5.892;2023-08-21T04:31:30;21.13;59.77
75363;DHT22;64122;51.988;5.892;2023-08-21T04:33:59;21.14;59.80
75363;DHT22;64122;51.988;5.892;2023-08-21T04:36:34;21.13;59.86
75363;DHT22;64122;51.988;5.892;2023-08-21T04:39:03;21.14;59.93
75363;DHT22;64122;51.988;5.892;2023-08-21T04:41:33;21.17;59.61
75363;DHT22;64122;51.988;5.892;2023-08-21T04:44:02;21.22;59.56
75363;DHT22;64122;51.988;5.892;2023-08-21T04:46:32;21.25;59.94
75363;DHT22;64122;51.988;5.892;2023-08-21T04:49:01;21.30;59.99
75363;DHT22;64122;51.988;5.892;2023-08-21T04:51:30;21.30;60.18
75363;DHT22;64122;51.988;5.892;2023-08-21T04:54:04;21.31;60.02
75363;DHT22;64122;51.988;5.892;2023-08-21T04:56:33;21.34;59.96
75363;DHT22;64122;51.988;5.892;2023-08-21T04:59:03;21.34;60.26
75363;DHT22;64122;51.988;5.892;2023-08-21T05:01:32;21.36;60.38
75363;DHT22;64122;51.988;5.892;2023-08-21T05:04:02;21.37;60.09
75363;DHT22;64122;51.988;5.892;2023-08-21T05:06:31;21.36;59.88
75363;DHT22;64122;51.988;5.892;2023-08-21T05:09:00;21.38;59.80
75363;DHT22;64122;51.988;5.892;2023-08-21T05:11:32;21.39;59.56
75363;DHT22;64122;51.988;5.892;2023-08-21T05:14:01;21.40;59.38
75363;DHT22;64122;51.988;5.892;2023-08-21T05:16:31;21.46;59.32
75363;DHT22;64122;51.988;5.892;2023-08-21T05:19:00;21.49;59.15
75363;DHT22;64122;51.988;5.892;2023-08-21T05:21:29;21.49;59.18
75363;DHT22;64122;51.988;5.892;2023-08-21T05:23:58;21.44;59.35
75363;DHT22;64122;51.988;5.892;2023-08-21T05:26:28;21.44;59.57
75363;DHT22;64122;51.988;5.892;2023-08-21T05:29:00;21.43;59.87
75363;DHT22;64122;51.988;5.892;2023-08-21T05:31:29;21.46;59.87
75363;DHT22;64122;51.988;5.892;2023-08-21T05:33:59;21.50;59.82
75363;DHT22;64122;51.988;5.892;2023-08-21T05:36:28;21.55;59.74
75363;DHT22;64122;51.988;5.892;2023-08-21T05:38:58;21.61;59.59
75363;DHT22;64122;51.988;5.892;2023-08-21T05:41:29;21.68;59.70
75363;DHT22;64122;51.988;5.892;2023-08-21T05:44:01;21.75;59.44
75363;DHT22;64122;51.988;5.892;2023-08-21T05:46:30;21.80;59.64
75363;DHT22;64122;51.988;5.892;2023-08-21T05:48:59;21.82;59.25
75363;DHT22;64122;51.988;5.892;2023-08-21T05:51:29;21.78;59.31
75363;DHT22;64122;51.988;5.892;2023-08-21T05:53:58;21.76;59.25
75363;DHT22;64122;51.988;5.892;2023-08-21T05:56:27;21.74;59.28
75363;DHT22;64122;51.988;5.892;2023-08-21T05:58:56;21.70;59.54
75363;DHT22;64122;51.988;5.892;2023-08-21T06:01:28;21.67;59.61
75363;DHT22;64122;51.988;5.892;2023-08-21T06:03:57;21.73;59.54
75363;DHT22;64122;51.988;5.892;2023-08-21T06:06:47;21.76;59.44
75363;DHT22;64122;51.988;5.892;2023-08-21T06:09:17;21.82;59.41
75363;DHT22;64122;51.988;5.892;2023-08-21T06:11:46;21.91;59.22
75363;DHT22;64122;51.988;5.892;2023-08-21T06:14:15;22.01;59.14
75363;DHT22;64122;51.988;5.892;2023-08-21T06:16:47;22.10;58.84
75363;DHT22;64122;51.988;5.892;2023-08-21T06:19:16;22.20;58.65
75363;DHT22;64122;51.988;5.892;2023-08-21T06:21:46;22.27;58.45
75363;DHT22;64122;51.988;5.892;2023-08-21T06:24:15;22.33;58.58
75363;DHT22;64122;51.988;5.892;2023-08-21T06:26:44;22.36;58.51
75363;DHT22;64122;51.988;5.892;2023-08-21T06:29:13;22.40;58.73
75363;DHT22;64122;51.988;5.892;2023-08-21T06:31:43;22.46;58.54
75363;DHT22;64122;51.988;5.892;2023-08-21T06:34:15;22.51;58.21
75363;DHT22;64122;51.988;5.892;2023-08-21T06:36:44;22.65;58.29
75363;DHT22;64122;51.988;5.892;2023-08-21T06:39:14;22.82;58.15
75363;DHT22;64122;51.988;5.892;2023-08-21T06:41:43;22.92;57.58
75363;DHT22;64122;51.988;5.892;2023-08-21T06:44:18;23.03;57.35
75363;DHT22;64122;51.988;5.892;2023-08-21T06:46:47;23.14;56.76
75363;DHT22;64122;51.988;5.892;2023-08-21T06:49:19;23.16;56.15
75363;DHT22;64122;51.988;5.892;2023-08-21T06:51:48;23.20;56.03
75363;DHT22;64122;51.988;5.892;2023-08-21T06:54:17;23.21;56.00
75363;DHT22;64122;51.988;5.892;2023-08-21T06:56:46;23.27;56.16
75363;DHT22;64122;51.988;5.892;2023-08-21T06:59:16;23.35;55.63
75363;DHT22;64122;51.988;5.892;2023-08-21T07:01:45;23.43;55.44
75363;DHT22;64122;51.988;5.892;2023-08-21T07:04:14;23.49;55.23
75363;DHT22;64122;51.988;5.892;2023-08-21T07:06:46;23.54;55.30
75363;DHT22;64122;51.988;5.892;2023-08-21T07:09:15;23.71;55.04
75363;DHT22;64122;51.988;5.892;2023-08-21T07:11:44;23.87;54.79
75363;DHT22;64122;51.988;5.892;2023-08-21T07:14:13;23.96;54.43
75363;DHT22;64122;51.988;5.892;2023-08-21T07:16:43;24.08;54.17
75363;DHT22;64122;51.988;5.892;2023-08-21T07:19:12;24.21;53.58
75363;DHT22;64122;51.988;5.892;2023-08-21T07:21:41;24.41;53.13
75363;DHT22;64122;51.988;5.892;2023-08-21T07:24:13;24.56;52.44
75363;DHT22;64122;51.988;5.892;2023-08-21T07:26:42;24.74;51.53
75363;DHT22;64122;51.988;5.892;2023-08-21T07:29:11;24.95;51.67
75363;DHT22;64122;51.988;5.892;2023-08-21T07:31:41;25.16;50.98
75363;DHT22;64122;51.988;5.892;2023-08-21T07:34:10;25.40;50.26
75363;DHT22;64122;51.988;5.892;2023-08-21T07:36:39;25.73;49.99
75363;DHT22;64122;51.988;5.892;2023-08-21T07:39:08;25.99;48.86
75363;DHT22;64122;51.988;5.892;2023-08-21T07:41:40;26.17;48.61
75363;DHT22;64122;51.988;5.892;2023-08-21T07:44:09;26.17;48.48
75363;DHT22;64122;51.988;5.892;2023-08-21T07:46:38;26.23;48.90
75363;DHT22;64122;51.988;5.892;2023-08-21T07:49:07;26.25;49.17
75363;DHT22;64122;51.988;5.892;2023-08-21T07:51:36;26.09;49.30
75363;DHT22;64122;51.988;5.892;2023-08-21T07:54:05;25.94;49.69
75363;DHT22;64122;51.988;5.892;2023-08-21T07:56:35;25.89;49.63
75363;DHT22;64122;51.988;5.892;2023-08-21T07:59:08;25.98;49.52
75363;DHT22;64122;51.988;5.892;2023-08-21T08:01:38;26.26;48.65
75363;DHT22;64122;51.988;5.892;2023-08-21T08:04:07;26.23;48.21
75363;DHT22;64122;51.988;5.892;2023-08-21T08:06:37;26.66;47.17
75363;DHT22;64122;51.988;5.892;2023-08-21T08:09:06;27.47;45.81
75363;DHT22;64122;51.988;5.892;2023-08-21T08:11:35;27.40;46.19
75363;DHT22;64122;51.988;5.892;2023-08-21T08:14:04;27.40;46.51
75363;DHT22;64122;51.988;5.892;2023-08-21T08:16:36;27.39;46.02
75363;DHT22;64122;51.988;5.892;2023-08-21T08:19:05;27.93;44.71
75363;DHT22;64122;51.988;5.892;2023-08-21T08:21:34;28.21;44.35
75363;DHT22;64122;51.988;5.892;2023-08-21T08:24:04;28.25;43.59
75363;DHT22;64122;51.988;5.892;2023-08-21T08:26:34;27.97;44.58
75363;DHT22;64122;51.988;5.892;2023-08-21T08:29:03;27.79;44.99
75363;DHT22;64122;51.988;5.892;2023-08-21T08:31:32;27.50;45.56
75363;DHT22;64122;51.988;5.892;2023-08-21T08:34:04;27.68;44.99
75363;DHT22;64122;51.988;5.892;2023-08-21T08:36:34;28.65;43.15
75363;DHT22;64122;51.988;5.892;2023-08-21T08:39:03;28.79;42.80
75363;DHT22;64122;51.988;5.892;2023-08-21T08:41:38;29.66;41.34
75363;DHT22;64122;51.988;5.892;2023-08-21T08:44:10;31.21;38.49
75363;DHT22;64122;51.988;5.892;2023-08-21T08:46:41;31.82;36.82
75363;DHT22;64122;51.988;5.892;2023-08-21T08:49:14;31.81;37.11
75363;DHT22;64122;51.988;5.892;2023-08-21T08:51:44;30.89;38.63
75363;DHT22;64122;51.988;5.892;2023-08-21T08:54:16;30.24;39.91
75363;DHT22;64122;51.988;5.892;2023-08-21T08:56:46;31.70;37.45
75363;DHT22;64122;51.988;5.892;2023-08-21T08:59:15;32.49;35.15
75363;DHT22;64122;51.988;5.892;2023-08-21T09:01:47;33.15;34.37
75363;DHT22;64122;51.988;5.892;2023-08-21T09:04:21;33.04;34.70
75363;DHT22;64122;51.988;5.892;2023-08-21T09:06:50;32.73;34.65
75363;DHT22;64122;51.988;5.892;2023-08-21T09:09:19;31.74;36.61
75363;DHT22;64122;51.988;5.892;2023-08-21T09:11:49;31.14;37.88
75363;DHT22;64122;51.988;5.892;2023-08-21T09:14:26;31.23;37.56
75363;DHT22;64122;51.988;5.892;2023-08-21T09:16:59;31.41;36.85
75363;DHT22;64122;51.988;5.892;2023-08-21T09:19:32;31.44;36.87
75363;DHT22;64122;51.988;5.892;2023-08-21T09:22:08;32.01;35.83
75363;DHT22;64122;51.988;5.892;2023-08-21T09:24:39;33.21;33.89
75363;DHT22;64122;51.988;5.892;2023-08-21T09:27:13;33.04;34.18
75363;DHT22;64122;51.988;5.892;2023-08-21T09:29:46;32.43;34.70
75363;DHT22;64122;51.988;5.892;2023-08-21T09:32:15;31.60;35.87
75363;DHT22;64122;51.988;5.892;2023-08-21T09:34:47;31.72;36.25
75363;DHT22;64122;51.988;5.892;2023-08-21T09:37:16;32.76;35.27
75363;DHT22;64122;51.988;5.892;2023-08-21T09:39:46;33.81;32.19
75363;DHT22;64122;51.988;5.892;2023-08-21T09:42:15;33.66;32.82
75363;DHT22;64122;51.988;5.892;2023-08-21T09:44:48;33.71;32.98
75363;DHT22;64122;51.988;5.892;2023-08-21T09:47:20;34.27;31.31
75363;DHT22;64122;51.988;5.892;2023-08-21T09:49:53;34.34;31.08
75363;DHT22;64122;51.988;5.892;2023-08-21T09:52:22;34.42;31.34
75363;DHT22;64122;51.988;5.892;2023-08-21T09:54:53;34.62;30.95
75363;DHT22;64122;51.988;5.892;2023-08-21T09:57:24;34.55;30.17
75363;DHT22;64122;51.988;5.892;2023-08-21T09:59:53;34.42;30.82
75363;DHT22;64122;51.988;5.892;2023-08-21T10:02:23;34.25;31.53
75363;DHT22;64122;51.988;5.892;2023-08-21T10:04:55;34.10;31.89
75363;DHT22;64122;51.988;5.892;2023-08-21T10:07:27;33.88;32.39
75363;DHT22;64122;51.988;5.892;2023-08-21T10:09:57;33.72;32.54
75363;DHT22;64122;51.988;5.892;2023-08-21T10:12:26;33.52;32.91
75363;DHT22;64122;51.988;5.892;2023-08-21T10:14:55;33.27;32.37
75363;DHT22;64122;51.988;5.892;2023-08-21T10:17:24;32.97;32.98
75363;DHT22;64122;51.988;5.892;2023-08-21T10:20:02;32.66;33.32
75363;DHT22;64122;51.988;5.892;2023-08-21T10:22:53;32.26;33.96
75363;DHT22;64122;51.988;5.892;2023-08-21T10:25:24;31.98;33.89
75363;DHT22;64122;51.988;5.892;2023-08-21T10:27:54;31.73;34.35
75363;DHT22;64122;51.988;5.892;2023-08-21T10:30:25;31.59;34.34
75363;DHT22;64122;51.988;5.892;2023-08-21T10:32:57;31.42;34.07
75363;DHT22;64122;51.988;5.892;2023-08-21T10:35:31;31.31;34.98
75363;DHT22;64122;51.988;5.892;2023-08-21T10:38:08;31.28;34.05
75363;DHT22;64122;51.988;5.892;2023-08-21T10:41:03;31.04;34.21
75363;DHT22;64122;51.988;5.892;2023-08-21T10:43:40;31.10;34.33
75363;DHT22;64122;51.988;5.892;2023-08-21T10:46:10;31.01;33.47
75363;DHT22;64122;51.988;5.892;2023-08-21T10:48:39;30.79;34.64
75363;DHT22;64122;51.988;5.892;2023-08-21T10:51:11;30.60;34.99
75363;DHT22;64122;51.988;5.892;2023-08-21T10:53:41;30.59;35.37
75363;DHT22;64122;51.988;5.892;2023-08-21T10:56:10;30.61;35.11
75363;DHT22;64122;51.988;5.892;2023-08-21T10:58:42;30.62;35.21
75363;DHT22;64122;51.988;5.892;2023-08-21T11:01:12;30.60;35.86
75363;DHT22;64122;51.988;5.892;2023-08-21T11:03:45;30.70;35.98
75363;DHT22;64122;51.988;5.892;2023-08-21T11:06:18;30.69;35.66
75363;DHT22;64122;51.988;5.892;2023-08-21T11:08:48;30.65;35.35
75363;DHT22;64122;51.988;5.892;2023-08-21T11:11:17;30.59;36.79
75363;DHT22;64122;51.988;5.892;2023-08-21T11:13:52;30.66;36.42
75363;DHT22;64122;51.988;5.892;2023-08-21T11:16:22;30.60;36.31
75363;DHT22;64122;51.988;5.892;2023-08-21T11:18:53;30.56;36.72
75363;DHT22;64122;51.988;5.892;2023-08-21T11:21:25;30.55;35.51
75363;DHT22;64122;51.988;5.892;2023-08-21T11:23:54;30.50;35.15
75363;DHT22;64122;51.988;5.892;2023-08-21T11:26:25;30.42;35.82
75363;DHT22;64122;51.988;5.892;2023-08-21T11:28:55;30.51;35.98
75363;DHT22;64122;51.988;5.892;2023-08-21T11:31:27;30.64;35.53
75363;DHT22;64122;51.988;5.892;2023-08-21T11:33:56;30.68;35.48
75363;DHT22;64122;51.988;5.892;2023-08-21T11:36:28;30.75;35.80
75363;DHT22;64122;51.988;5.892;2023-08-21T11:38:58;30.80;35.76
75363;DHT22;64122;51.988;5.892;2023-08-21T11:41:31;30.90;35.42
75363;DHT22;64122;51.988;5.892;2023-08-21T11:44:02;30.95;34.79
75363;DHT22;64122;51.988;5.892;2023-08-21T11:46:31;30.93;35.05
75363;DHT22;64122;51.988;5.892;2023-08-21T11:49:01;30.95;34.95
75363;DHT22;64122;51.988;5.892;2023-08-21T11:51:40;30.94;34.63
75363;DHT22;64122;51.988;5.892;2023-08-21T11:54:09;30.94;34.63
75363;DHT22;64122;51.988;5.892;2023-08-21T11:56:46;30.96;34.45
75363;DHT22;64122;51.988;5.892;2023-08-21T11:59:21;30.99;34.29
75363;DHT22;64122;51.988;5.892;2023-08-21T12:01:51;31.01;34.25
75363;DHT22;64122;51.988;5.892;2023-08-21T12:04:20;31.01;34.08
75363;DHT22;64122;51.988;5.892;2023-08-21T12:06:52;31.08;34.13
75363;DHT22;64122;51.988;5.892;2023-08-21T12:09:22;31.12;33.60
75363;DHT22;64122;51.988;5.892;2023-08-21T12:11:51;31.16;33.67
75363;DHT22;64122;51.988;5.892;2023-08-21T12:14:21;30.93;32.96
75363;DHT22;64122;51.988;5.892;2023-08-21T12:16:50;30.83;33.31
75363;DHT22;64122;51.988;5.892;2023-08-21T12:19:21;30.87;33.72
75363;DHT22;64122;51.988;5.892;2023-08-21T12:21:53;30.93;33.26
75363;DHT22;64122;51.988;5.892;2023-08-21T12:24:22;30.93;33.44
75363;DHT22;64122;51.988;5.892;2023-08-21T12:26:51;31.00;33.67
75363;DHT22;64122;51.988;5.892;2023-08-21T12:29:21;31.07;33.72
75363;DHT22;64122;51.988;5.892;2023-08-21T12:31:51;31.09;33.41
75363;DHT22;64122;51.988;5.892;2023-08-21T12:34:20;31.00;32.55
75363;DHT22;64122;51.988;5.892;2023-08-21T12:36:53;30.90;33.02
75363;DHT22;64122;51.988;5.892;2023-08-21T12:39:22;30.86;33.37
75363;DHT22;64122;51.988;5.892;2023-08-21T12:41:51;30.86;33.20
75363;DHT22;64122;51.988;5.892;2023-08-21T12:44:20;30.81;33.25
75363;DHT22;64122;51.988;5.892;2023-08-21T12:46:50;30.84;33.02
75363;DHT22;64122;51.988;5.892;2023-08-21T12:49:19;30.84;33.06
75363;DHT22;64122;51.988;5.892;2023-08-21T12:51:48;30.85;33.28
75363;DHT22;64122;51.988;5.892;2023-08-21T12:54:20;30.84;33.28
75363;DHT22;64122;51.988;5.892;2023-08-21T12:56:49;30.90;33.44
75363;DHT22;64122;51.988;5.892;2023-08-21T12:59:20;30.90;32.94
75363;DHT22;64122;51.988;5.892;2023-08-21T13:01:49;30.93;33.34
75363;DHT22;64122;51.988;5.892;2023-08-21T13:04:18;30.89;33.61
75363;DHT22;64122;51.988;5.892;2023-08-21T13:06:47;30.86;33.76
75363;DHT22;64122;51.988;5.892;2023-08-21T13:09:17;30.87;34.17
75363;DHT22;64122;51.988;5.892;2023-08-21T13:11:48;30.85;33.94
75363;DHT22;64122;51.988;5.892;2023-08-21T13:14:18;30.90;33.76
75363;DHT22;64122;51.988;5.892;2023-08-21T13:16:47;30.84;34.02
75363;DHT22;64122;51.988;5.892;2023-08-21T13:19:16;30.81;34.32
75363;DHT22;64122;51.988;5.892;2023-08-21T13:21:46;30.76;34.06
75363;DHT22;64122;51.988;5.892;2023-08-21T13:24:15;30.79;33.76
75363;DHT22;64122;51.988;5.892;2023-08-21T13:26:44;30.79;34.48
75363;DHT22;64122;51.988;5.892;2023-08-21T13:29:16;30.77;34.28
75363;DHT22;64122;51.988;5.892;2023-08-21T13:31:45;30.78;34.29
75363;DHT22;64122;51.988;5.892;2023-08-21T13:34:14;30.80;34.28
75363;DHT22;64122;51.988;5.892;2023-08-21T13:36:43;30.84;34.21
75363;DHT22;64122;51.988;5.892;2023-08-21T13:39:12;30.90;33.92
75363;DHT22;64122;51.988;5.892;2023-08-21T13:41:42;30.84;34.04
75363;DHT22;64122;51.988;5.892;2023-08-21T13:44:16;30.84;33.10
75363;DHT22;64122;51.988;5.892;2023-08-21T13:46:45;30.87;32.57
75363;DHT22;64122;51.988;5.892;2023-08-21T13:49:14;30.79;32.02
75363;DHT22;64122;51.988;5.892;2023-08-21T13:51:44;30.59;31.96
75363;DHT22;64122;51.988;5.892;2023-08-21T13:54:13;30.44;32.19
75363;DHT22;64122;51.988;5.892;2023-08-21T13:56:42;30.31;32.06
75363;DHT22;64122;51.988;5.892;2023-08-21T13:59:11;30.22;32.06
75363;DHT22;64122;51.988;5.892;2023-08-21T14:01:43;30.17;31.28
75363;DHT22;64122;51.988;5.892;2023-08-21T14:04:12;30.17;32.27
75363;DHT22;64122;51.988;5.892;2023-08-21T14:06:41;30.17;32.83
75363;DHT22;64122;51.988;5.892;2023-08-21T14:09:10;30.16;32.89
75363;DHT22;64122;51.988;5.892;2023-08-21T14:11:39;30.11;31.93
75363;DHT22;64122;51.988;5.892;2023-08-21T14:14:09;30.02;31.25
75363;DHT22;64122;51.988;5.892;2023-08-21T14:16:38;29.94;31.41
75363;DHT22;64122;51.988;5.892;2023-08-21T14:19:10;29.91;31.85
75363;DHT22;64122;51.988;5.892;2023-08-21T14:21:39;29.94;32.55
75363;DHT22;64122;51.988;5.892;2023-08-21T14:24:08;29.91;32.89
75363;DHT22;64122;51.988;5.892;2023-08-21T14:26:38;29.86;31.91
75363;DHT22;64122;51.988;5.892;2023-08-21T14:29:07;29.85;31.77
75363;DHT22;64122;51.988;5.892;2023-08-21T14:31:36;29.83;31.35
75363;DHT22;64122;51.988;5.892;2023-08-21T14:34:05;29.85;31.99
75363;DHT22;64122;51.988;5.892;2023-08-21T14:36:37;29.89;31.54
75363;DHT22;64122;51.988;5.892;2023-08-21T14:39:06;29.90;31.73
75363;DHT22;64122;51.988;5.892;2023-08-21T14:41:37;29.79;32.17
75363;DHT22;64122;51.988;5.892;2023-08-21T14:44:06;29.74;32.73
75363;DHT22;64122;51.988;5.892;2023-08-21T14:46:35;29.73;33.04
75363;DHT22;64122;51.988;5.892;2023-08-21T14:49:04;29.73;33.53
75363;DHT22;64122;51.988;5.892;2023-08-21T14:51:34;29.72;33.14
75363;DHT22;64122;51.988;5.892;2023-08-21T14:54:06;29.65;33.41
75363;DHT22;64122;51.988;5.892;2023-08-21T14:56:36;29.64;33.09
75363;DHT22;64122;51.988;5.892;2023-08-21T14:59:05;29.60;32.84
75363;DHT22;64122;51.988;5.892;2023-08-21T15:01:37;29.57;32.79
75363;DHT22;64122;51.988;5.892;2023-08-21T15:04:07;29.52;32.80
75363;DHT22;64122;51.988;5.892;2023-08-21T15:06:37;29.49;32.54
75363;DHT22;64122;51.988;5.892;2023-08-21T15:09:09;29.45;32.53
75363;DHT22;64122;51.988;5.892;2023-08-21T15:11:39;29.43;31.93
75363;DHT22;64122;51.988;5.892;2023-08-21T15:14:10;29.43;31.64
75363;DHT22;64122;51.988;5.892;2023-08-21T15:16:39;29.42;31.71
75363;DHT22;64122;51.988;5.892;2023-08-21T15:19:09;29.41;31.80
75363;DHT22;64122;51.988;5.892;2023-08-21T15:21:38;29.31;32.48
75363;DHT22;64122;51.988;5.892;2023-08-21T15:24:09;29.26;33.02
75363;DHT22;64122;51.988;5.892;2023-08-21T15:26:42;29.23;33.09
75363;DHT22;64122;51.988;5.892;2023-08-21T15:29:11;29.20;33.25
75363;DHT22;64122;51.988;5.892;2023-08-21T15:31:40;29.15;33.83
75363;DHT22;64122;51.988;5.892;2023-08-21T15:34:09;29.14;34.37
75363;DHT22;64122;51.988;5.892;2023-08-21T15:36:38;29.14;34.65
75363;DHT22;64122;51.988;5.892;2023-08-21T15:39:10;29.09;34.94
75363;DHT22;64122;51.988;5.892;2023-08-21T15:41:39;29.07;33.55
75363;DHT22;64122;51.988;5.892;2023-08-21T15:44:09;29.02;32.15
75363;DHT22;64122;51.988;5.892;2023-08-21T15:46:38;29.01;31.90
75363;DHT22;64122;51.988;5.892;2023-08-21T15:49:09;28.95;31.96